createdAt,value
2023-04-08T00:01:32.500Z,12.83
2023-04-08T00:04:02.156Z,12.82
2023-04-08T00:06:31.648Z,12.82
2023-04-08T00:08:59.558Z,12.78
2023-04-08T00:11:27.529Z,12.76
2023-04-08T00:13:55.423Z,12.78
2023-04-08T00:16:23.596Z,12.79
2023-04-08T00:18:52.260Z,12.74
2023-04-08T00:21:21.895Z,12.67
2023-04-08T00:23:50.748Z,12.63
2023-04-08T00:26:18.731Z,12.60
2023-04-08T00:28:47.178Z,12.60
2023-04-08T00:31:15.114Z,12.60
2023-04-08T00:33:43.233Z,12.54
2023-04-08T00:36:12.138Z,12.51
2023-04-08T00:38:41.598Z,12.56
2023-04-08T00:41:09.520Z,12.61
2023-04-08T00:43:37.414Z,12.66
2023-04-08T00:46:06.700Z,12.70
2023-04-08T00:48:35.505Z,12.66
2023-04-08T00:51:03.630Z,12.67
2023-04-08T00:53:32.384Z,12.70
2023-04-08T00:56:01.840Z,12.70
2023-04-08T00:58:30.235Z,12.72
2023-04-08T01:01:01.756Z,12.73
2023-04-08T01:03:35.528Z,12.73
2023-04-08T01:06:07.963Z,12.72
2023-04-08T01:08:37.866Z,12.69
2023-04-08T01:11:07.571Z,12.59
2023-04-08T01:13:36.400Z,12.49
2023-04-08T01:16:04.928Z,12.37
2023-04-08T01:18:32.862Z,12.35
2023-04-08T01:21:00.846Z,12.37
2023-04-08T01:23:33.040Z,12.42
2023-04-08T01:26:02.366Z,12.42
2023-04-08T01:28:31.022Z,12.45
2023-04-08T01:31:01.069Z,12.47
2023-04-08T01:33:29.346Z,12.46
2023-04-08T01:35:57.665Z,12.39
2023-04-08T01:38:26.500Z,12.31
2023-04-08T01:40:54.628Z,12.28
2023-04-08T01:43:24.955Z,12.27
2023-04-08T01:45:54.613Z,12.28
2023-04-08T01:48:22.557Z,12.25
2023-04-08T01:50:51.321Z,12.18
2023-04-08T01:53:19.246Z,12.17
2023-04-08T01:55:47.157Z,12.16
2023-04-08T01:58:18.546Z,12.17
2023-04-08T02:00:47.899Z,12.18
2023-04-08T02:03:16.376Z,12.18
2023-04-08T02:05:47.235Z,12.20
2023-04-08T02:08:15.328Z,12.19
2023-04-08T02:10:43.271Z,12.13
2023-04-08T02:13:11.169Z,12.06
2023-04-08T02:15:39.966Z,12.04
2023-04-08T02:18:12.363Z,12.01
2023-04-08T02:20:43.338Z,12.03
2023-04-08T02:23:16.589Z,12.04
2023-04-08T02:25:46.431Z,12.02
2023-04-08T02:28:14.378Z,11.96
2023-04-08T02:30:43.731Z,11.95
2023-04-08T02:33:16.248Z,11.96
2023-04-08T02:35:44.622Z,11.98
2023-04-08T02:38:12.580Z,11.97
2023-04-08T02:40:40.548Z,11.99
2023-04-08T02:43:08.604Z,12.00
2023-04-08T02:45:39.264Z,11.98
2023-04-08T02:48:07.670Z,11.99
2023-04-08T02:50:36.991Z,11.94
2023-04-08T02:53:05.084Z,11.92
2023-04-08T02:55:34.654Z,11.89
2023-04-08T02:58:02.502Z,11.89
2023-04-08T03:00:30.528Z,11.90
2023-04-08T03:02:58.573Z,11.92
2023-04-08T03:05:27.237Z,11.95
2023-04-08T03:07:56.611Z,11.97
2023-04-08T03:10:24.650Z,12.00
2023-04-08T03:12:52.623Z,11.98
2023-04-08T03:15:20.634Z,11.98
2023-04-08T03:17:48.616Z,11.94
2023-04-08T03:20:16.688Z,11.92
2023-04-08T03:22:44.666Z,11.87
2023-04-08T03:25:14.065Z,11.78
2023-04-08T03:27:42.031Z,11.65
2023-04-08T03:30:10.387Z,11.51
2023-04-08T03:32:38.434Z,11.42
2023-04-08T03:35:07.174Z,11.41
2023-04-08T03:37:36.500Z,11.49
2023-04-08T03:40:04.676Z,11.63
2023-04-08T03:42:35.100Z,11.74
2023-04-08T03:45:04.810Z,11.85
2023-04-08T03:47:32.737Z,11.94
2023-04-08T03:50:00.659Z,12.01
2023-04-08T03:52:28.595Z,12.07
2023-04-08T03:54:57.409Z,12.11
2023-04-08T03:57:25.283Z,12.10
2023-04-08T03:59:55.185Z,12.06
2023-04-08T04:02:23.222Z,11.98
2023-04-08T04:04:51.464Z,11.87
2023-04-08T04:07:19.449Z,11.77
2023-04-08T04:09:47.497Z,11.69
2023-04-08T04:12:15.464Z,11.63
2023-04-08T04:14:43.452Z,11.60
2023-04-08T04:17:12.915Z,11.61
2023-04-08T04:19:40.843Z,11.61
2023-04-08T04:22:09.932Z,11.58
2023-04-08T04:24:37.837Z,11.58
2023-04-08T04:27:05.714Z,11.63
2023-04-08T04:29:33.611Z,11.69
2023-04-08T04:32:01.714Z,11.71
2023-04-08T04:34:31.225Z,11.71
2023-04-08T04:36:59.118Z,11.70
2023-04-08T04:39:27.468Z,11.72
2023-04-08T04:41:55.493Z,11.78
2023-04-08T04:44:24.123Z,11.86
2023-04-08T04:46:52.195Z,11.91
2023-04-08T04:49:20.632Z,11.95
2023-04-08T04:51:50.311Z,11.99
2023-04-08T04:54:18.405Z,12.03
2023-04-08T04:56:46.368Z,12.02
2023-04-08T04:59:14.423Z,12.02
2023-04-08T05:01:42.493Z,12.02
2023-04-08T05:04:10.589Z,12.06
2023-04-08T05:06:38.659Z,12.10
2023-04-08T05:09:08.107Z,12.16
2023-04-08T05:11:36.229Z,12.20
2023-04-08T05:14:04.146Z,12.24
2023-04-08T05:16:32.381Z,12.28
2023-04-08T05:19:00.444Z,12.30
2023-04-08T05:21:28.470Z,12.30
2023-04-08T05:23:56.566Z,12.31
2023-04-08T05:26:26.710Z,12.31
2023-04-08T05:28:56.772Z,12.35
2023-04-08T05:31:24.696Z,12.37
2023-04-08T05:33:52.793Z,12.37
2023-04-08T05:36:20.734Z,12.38
2023-04-08T05:38:49.062Z,12.33
2023-04-08T05:41:17.094Z,12.31
2023-04-08T05:43:46.442Z,12.29
2023-04-08T05:46:14.487Z,12.30
2023-04-08T05:48:42.419Z,12.33
2023-04-08T05:51:14.911Z,12.32
2023-04-08T05:53:42.902Z,12.34
2023-04-08T05:56:10.820Z,12.37
2023-04-08T05:58:39.226Z,12.40
2023-04-08T06:01:08.535Z,12.45
2023-04-08T06:03:36.614Z,12.50
2023-04-08T06:06:04.745Z,12.54
2023-04-08T06:08:32.709Z,12.60
2023-04-08T06:11:00.805Z,12.63
2023-04-08T06:13:32.764Z,12.66
2023-04-08T06:16:00.913Z,12.71
2023-04-08T06:18:30.132Z,12.74
2023-04-08T06:20:59.656Z,12.80
2023-04-08T06:23:27.772Z,12.82
2023-04-08T06:25:55.720Z,12.87
2023-04-08T06:28:23.728Z,12.91
2023-04-08T06:30:51.734Z,12.95
2023-04-08T06:33:19.813Z,12.97
2023-04-08T06:35:49.421Z,13.03
2023-04-08T06:38:17.380Z,13.05
2023-04-08T06:40:45.579Z,13.07
2023-04-08T06:43:13.519Z,13.08
2023-04-08T06:45:42.996Z,13.11
2023-04-08T06:48:10.934Z,13.15
2023-04-08T06:50:38.889Z,13.18
2023-04-08T06:53:10.637Z,13.22
2023-04-08T06:55:38.528Z,13.26
2023-04-08T06:58:06.609Z,13.33
2023-04-08T07:00:34.634Z,13.39
2023-04-08T07:03:02.628Z,13.44
2023-04-08T07:05:30.834Z,13.49
2023-04-08T07:07:58.758Z,13.52
2023-04-08T07:10:28.004Z,13.53
2023-04-08T07:12:56.900Z,13.57
2023-04-08T07:15:24.976Z,13.60
2023-04-08T07:17:52.914Z,13.66
2023-04-08T07:20:20.943Z,13.72
2023-04-08T07:22:48.823Z,13.76
2023-04-08T07:25:16.986Z,13.79
2023-04-08T07:27:46.242Z,13.85
2023-04-08T07:30:14.309Z,13.92
2023-04-08T07:32:42.274Z,14.00
2023-04-08T07:35:10.447Z,14.07
2023-04-08T07:37:38.445Z,14.15
2023-04-08T07:40:07.654Z,14.24
2023-04-08T07:42:35.676Z,14.36
2023-04-08T07:45:05.541Z,14.45
2023-04-08T07:47:33.471Z,14.54
2023-04-08T07:50:01.538Z,14.63
2023-04-08T07:52:29.846Z,14.69
2023-04-08T07:54:57.800Z,14.74
2023-04-08T07:57:27.473Z,14.79
2023-04-08T07:59:55.431Z,14.88
2023-04-08T08:02:24.884Z,14.95
2023-04-08T08:04:53.029Z,15.05
2023-04-08T08:07:21.198Z,15.12
2023-04-08T08:09:49.331Z,15.19
2023-04-08T08:12:17.603Z,15.23
2023-04-08T08:14:45.508Z,15.31
2023-04-08T08:17:13.583Z,15.41
2023-04-08T08:19:42.882Z,15.51
2023-04-08T08:22:10.957Z,15.66
2023-04-08T08:24:40.154Z,15.79
2023-04-08T08:27:08.192Z,15.92
2023-04-08T08:29:37.093Z,15.99
2023-04-08T08:32:05.076Z,16.07
2023-04-08T08:34:33.504Z,16.06
2023-04-08T08:37:02.932Z,16.07
2023-04-08T08:39:30.988Z,16.11
2023-04-08T08:41:58.997Z,16.14
2023-04-08T08:44:27.147Z,16.18
2023-04-08T08:46:55.130Z,16.24
2023-04-08T08:49:23.979Z,16.33
2023-04-08T08:51:52.150Z,16.32
2023-04-08T08:54:21.818Z,16.33
2023-04-08T08:56:50.039Z,16.31
2023-04-08T08:59:18.188Z,16.33
2023-04-08T09:01:46.385Z,16.34
2023-04-08T09:04:17.170Z,16.33
2023-04-08T09:06:46.730Z,16.39
2023-04-08T09:09:14.906Z,16.48
2023-04-08T09:11:47.248Z,16.60
2023-04-08T09:14:22.276Z,16.71
2023-04-08T09:16:50.832Z,16.83
2023-04-08T09:19:18.824Z,16.96
2023-04-08T09:21:47.755Z,17.02
2023-04-08T09:24:29.025Z,17.12
2023-04-08T09:26:58.587Z,17.22
2023-04-08T09:29:30.065Z,17.32
2023-04-08T09:32:00.815Z,17.39
2023-04-08T09:34:29.730Z,17.45
2023-04-08T09:36:57.797Z,17.59
2023-04-08T09:39:26.486Z,17.75
2023-04-08T09:41:55.131Z,17.95
2023-04-08T09:44:24.770Z,18.09
2023-04-08T09:46:59.114Z,18.17
2023-04-08T09:49:28.398Z,18.23
2023-04-08T09:52:01.002Z,18.33
2023-04-08T09:54:33.428Z,18.41
2023-04-08T09:57:06.079Z,18.52
2023-04-08T09:59:39.140Z,18.63
2023-04-08T10:02:14.135Z,18.73
2023-04-08T10:04:43.929Z,18.81
2023-04-08T10:07:14.205Z,18.79
2023-04-08T10:09:43.293Z,18.90
2023-04-08T10:12:11.403Z,19.03
2023-04-08T10:14:48.060Z,19.18
2023-04-08T10:17:26.468Z,19.31
2023-04-08T10:19:54.878Z,19.47
2023-04-08T10:22:48.281Z,19.65
2023-04-08T10:25:30.678Z,19.85
2023-04-08T10:27:58.667Z,19.98
2023-04-08T10:30:47.318Z,19.97
2023-04-08T10:33:17.362Z,19.97
2023-04-08T10:35:48.593Z,20.03
2023-04-08T10:38:17.857Z,20.27
2023-04-08T10:40:46.108Z,20.40
2023-04-08T10:43:16.196Z,20.50
2023-04-08T10:45:48.572Z,20.56
2023-04-08T10:48:18.894Z,20.75
2023-04-08T10:50:53.820Z,20.95
2023-04-08T10:53:27.095Z,21.09
2023-04-08T10:55:55.160Z,21.25
2023-04-08T10:58:23.281Z,21.45
2023-04-08T11:00:55.698Z,21.53
2023-04-08T11:03:23.974Z,21.72
2023-04-08T11:05:52.676Z,21.74
2023-04-08T11:08:21.293Z,21.73
2023-04-08T11:10:49.613Z,21.53
2023-04-08T11:13:19.061Z,21.35
2023-04-08T11:15:52.122Z,21.31
2023-04-08T11:18:21.937Z,21.35
2023-04-08T11:20:51.817Z,21.22
2023-04-08T11:23:19.955Z,21.15
2023-04-08T11:25:49.077Z,21.20
2023-04-08T11:28:18.032Z,21.33
2023-04-08T11:30:46.218Z,21.43
2023-04-08T11:33:14.630Z,21.54
2023-04-08T11:35:47.944Z,21.73
2023-04-08T11:38:16.093Z,21.89
2023-04-08T11:40:53.549Z,22.14
2023-04-08T11:43:22.277Z,22.16
2023-04-08T11:45:50.835Z,22.17
2023-04-08T11:48:19.481Z,22.18
2023-04-08T11:51:03.648Z,22.30
2023-04-08T11:53:32.274Z,22.38
2023-04-08T11:56:00.514Z,22.37
2023-04-08T11:58:28.692Z,22.39
2023-04-08T12:00:57.704Z,22.44
2023-04-08T12:03:26.082Z,22.55
2023-04-08T12:05:56.009Z,22.72
2023-04-08T12:08:24.266Z,22.94
2023-04-08T12:10:59.674Z,23.14
2023-04-08T12:13:31.997Z,23.31
2023-04-08T12:16:00.063Z,23.46
2023-04-08T12:18:28.319Z,23.61
2023-04-08T12:20:58.154Z,23.92
2023-04-08T12:23:26.306Z,24.14
2023-04-08T12:25:54.443Z,24.25
2023-04-08T12:28:23.275Z,24.45
2023-04-08T12:30:51.647Z,24.69
2023-04-08T12:33:19.672Z,24.67
2023-04-08T12:35:47.615Z,24.50
2023-04-08T12:38:17.508Z,24.40
2023-04-08T12:40:45.533Z,24.12
2023-04-08T12:43:13.892Z,23.98
2023-04-08T12:45:42.685Z,24.02
2023-04-08T12:48:10.925Z,24.07
2023-04-08T12:50:39.243Z,24.08
2023-04-08T12:53:07.227Z,24.01
2023-04-08T12:55:39.381Z,24.17
2023-04-08T12:58:07.551Z,24.27
2023-04-08T13:00:38.317Z,24.26
2023-04-08T13:03:07.370Z,24.41
2023-04-08T13:05:43.386Z,24.38
2023-04-08T13:08:12.464Z,24.40
2023-04-08T13:10:42.814Z,24.59
2023-04-08T13:13:12.652Z,24.42
2023-04-08T13:15:43.925Z,24.32
2023-04-08T13:18:12.006Z,24.34
2023-04-08T13:20:40.433Z,24.32
2023-04-08T13:23:08.490Z,24.22
2023-04-08T13:25:36.511Z,24.22
2023-04-08T13:28:06.117Z,24.27
2023-04-08T13:30:34.353Z,24.21
2023-04-08T13:33:04.961Z,24.19
2023-04-08T13:35:33.268Z,24.28
2023-04-08T13:38:01.423Z,24.27
2023-04-08T13:40:30.397Z,24.09
2023-04-08T13:43:00.829Z,24.01
2023-04-08T13:45:30.399Z,23.78
2023-04-08T13:48:00.241Z,23.47
2023-04-08T13:50:28.559Z,23.30
2023-04-08T13:52:57.478Z,23.09
2023-04-08T13:55:26.187Z,22.99
2023-04-08T13:57:56.457Z,22.91
2023-04-08T14:00:27.185Z,22.85
2023-04-08T14:02:56.786Z,22.90
2023-04-08T14:05:27.136Z,22.96
2023-04-08T14:07:55.700Z,23.09
2023-04-08T14:10:23.871Z,23.20
2023-04-08T14:12:54.768Z,23.32
2023-04-08T14:15:22.770Z,23.01
2023-04-08T14:17:50.888Z,23.20
2023-04-08T14:20:21.025Z,23.63
2023-04-08T14:22:49.176Z,23.50
2023-04-08T14:25:17.483Z,23.13
2023-04-08T14:27:57.313Z,22.81
2023-04-08T14:30:27.310Z,22.53
2023-04-08T14:32:55.767Z,22.31
2023-04-08T14:35:25.521Z,22.14
2023-04-08T14:37:53.800Z,22.06
2023-04-08T14:40:22.342Z,22.08
2023-04-08T14:42:54.452Z,22.12
2023-04-08T14:45:22.709Z,22.24
2023-04-08T14:47:51.730Z,22.26
2023-04-08T14:50:20.055Z,22.19
2023-04-08T14:52:51.041Z,22.21
2023-04-08T14:55:19.184Z,22.38
2023-04-08T14:57:47.188Z,22.77
2023-04-08T15:00:18.080Z,22.60
2023-04-08T15:02:46.296Z,22.57
2023-04-08T15:05:14.477Z,22.57
2023-04-08T15:07:42.979Z,22.97
2023-04-08T15:10:12.965Z,23.29
2023-04-08T15:12:41.035Z,23.48
2023-04-08T15:15:10.493Z,23.63
2023-04-08T15:17:40.398Z,23.92
2023-04-08T15:20:10.595Z,24.26
2023-04-08T15:22:38.640Z,24.26
2023-04-08T15:25:07.544Z,24.26
2023-04-08T15:27:37.947Z,24.14
2023-04-08T15:30:09.464Z,23.92
2023-04-08T15:32:39.995Z,23.63
2023-04-08T15:35:11.309Z,23.37
2023-04-08T15:37:39.744Z,23.19
2023-04-08T15:40:09.953Z,22.95
2023-04-08T15:42:39.431Z,22.86
2023-04-08T15:45:09.590Z,22.81
2023-04-08T15:47:37.815Z,22.77
2023-04-08T15:50:06.521Z,22.74
2023-04-08T15:52:35.671Z,22.80
2023-04-08T15:55:03.816Z,22.83
2023-04-08T15:57:32.551Z,22.81
2023-04-08T16:00:11.161Z,22.83
2023-04-08T16:02:42.448Z,22.83
2023-04-08T16:05:12.466Z,22.81
2023-04-08T16:07:42.181Z,22.79
2023-04-08T16:10:11.883Z,22.73
2023-04-08T16:12:39.964Z,22.61
2023-04-08T16:15:10.278Z,22.46
2023-04-08T16:17:38.378Z,22.33
2023-04-08T16:20:07.586Z,22.24
2023-04-08T16:22:36.882Z,22.18
2023-04-08T16:25:05.473Z,22.13
2023-04-08T16:27:33.722Z,21.98
2023-04-08T16:30:03.941Z,21.84
2023-04-08T16:32:34.043Z,21.76
2023-04-08T16:35:02.215Z,21.72
2023-04-08T16:37:30.489Z,21.72
2023-04-08T16:40:01.623Z,21.67
2023-04-08T16:42:29.751Z,21.66
2023-04-08T16:44:58.050Z,21.55
2023-04-08T16:47:26.494Z,21.47
2023-04-08T16:49:55.994Z,21.33
2023-04-08T16:52:24.155Z,21.21
2023-04-08T16:54:52.406Z,21.07
2023-04-08T16:57:20.500Z,20.95
2023-04-08T16:59:48.568Z,20.81
2023-04-08T17:02:16.721Z,20.71
2023-04-08T17:04:44.685Z,20.64
2023-04-08T17:07:14.594Z,20.57
2023-04-08T17:09:42.722Z,20.53
2023-04-08T17:12:10.669Z,20.51
2023-04-08T17:14:38.610Z,20.60
2023-04-08T17:17:06.633Z,20.69
2023-04-08T17:19:34.610Z,20.68
2023-04-08T17:22:02.771Z,20.67
2023-04-08T17:24:32.101Z,20.60
2023-04-08T17:27:00.676Z,20.48
2023-04-08T17:29:28.574Z,20.34
2023-04-08T17:31:56.607Z,20.15
2023-04-08T17:34:24.864Z,20.03
2023-04-08T17:36:55.241Z,19.93
2023-04-08T17:39:23.259Z,19.80
2023-04-08T17:41:54.395Z,19.69
2023-04-08T17:44:22.414Z,19.54
2023-04-08T17:46:50.389Z,19.46
2023-04-08T17:49:18.594Z,19.36
2023-04-08T17:51:46.526Z,19.27
2023-04-08T17:54:14.747Z,19.14
2023-04-08T17:56:44.668Z,19.02
2023-04-08T17:59:14.586Z,18.91
2023-04-08T18:01:42.804Z,18.79
2023-04-08T18:04:12.459Z,18.68
2023-04-08T18:06:40.702Z,18.53
2023-04-08T18:09:08.817Z,18.38
2023-04-08T18:11:37.051Z,18.24
2023-04-08T18:14:06.357Z,18.15
2023-04-08T18:16:36.128Z,18.06
2023-04-08T18:19:04.594Z,17.95
2023-04-08T18:21:32.803Z,17.89
2023-04-08T18:24:01.084Z,17.83
2023-04-08T18:26:29.548Z,17.76
2023-04-08T18:28:57.688Z,17.72
2023-04-08T18:31:25.738Z,17.68
2023-04-08T18:33:55.198Z,17.67
2023-04-08T18:36:23.484Z,17.63
2023-04-08T18:38:51.477Z,17.62
2023-04-08T18:41:20.984Z,17.57
2023-04-08T18:43:49.115Z,17.50
2023-04-08T18:46:17.947Z,17.42
2023-04-08T18:48:45.987Z,17.36
2023-04-08T18:51:16.676Z,17.29
2023-04-08T18:53:44.779Z,17.23
2023-04-08T18:56:16.054Z,17.15
2023-04-08T18:58:44.575Z,17.08
2023-04-08T19:01:12.538Z,17.00
2023-04-08T19:03:40.569Z,16.94
2023-04-08T19:06:09.096Z,16.89
2023-04-08T19:08:38.481Z,16.82
2023-04-08T19:11:06.796Z,16.78
2023-04-08T19:13:34.994Z,16.80
2023-04-08T19:16:03.053Z,16.79
2023-04-08T19:18:31.333Z,16.76
2023-04-08T19:20:59.629Z,16.71
2023-04-08T19:23:27.563Z,16.64
2023-04-08T19:25:56.931Z,16.64
2023-04-08T19:28:24.990Z,16.61
2023-04-08T19:30:52.954Z,16.58
2023-04-08T19:33:21.117Z,16.55
2023-04-08T19:35:51.105Z,16.52
2023-04-08T19:38:19.117Z,16.50
2023-04-08T19:40:48.097Z,16.46
2023-04-08T19:43:17.858Z,16.46
2023-04-08T19:45:48.711Z,16.41
2023-04-08T19:48:18.101Z,16.36
2023-04-08T19:50:46.240Z,16.34
2023-04-08T19:53:14.275Z,16.32
2023-04-08T19:55:42.559Z,16.28
2023-04-08T19:58:10.812Z,16.26
2023-04-08T20:00:40.156Z,16.25
2023-04-08T20:03:08.830Z,16.21
2023-04-08T20:05:37.064Z,16.17
2023-04-08T20:08:05.352Z,16.15
2023-04-08T20:10:35.588Z,16.15
2023-04-08T20:13:03.900Z,16.11
2023-04-08T20:15:32.223Z,16.08
2023-04-08T20:18:01.935Z,16.00
2023-04-08T20:20:30.117Z,16.00
2023-04-08T20:22:58.217Z,15.98
2023-04-08T20:25:26.112Z,15.94
2023-04-08T20:27:54.221Z,15.88
2023-04-08T20:30:22.749Z,15.85
2023-04-08T20:32:50.767Z,15.81
2023-04-08T20:35:21.131Z,15.79
2023-04-08T20:37:49.178Z,15.79
2023-04-08T20:40:18.354Z,15.77
2023-04-08T20:42:46.659Z,15.77
2023-04-08T20:45:14.693Z,15.73
2023-04-08T20:47:44.576Z,15.71
2023-04-08T20:50:12.671Z,15.66
2023-04-08T20:52:42.126Z,15.64
2023-04-08T20:55:10.983Z,15.62
2023-04-08T20:57:38.958Z,15.58
2023-04-08T21:00:07.975Z,15.57
2023-04-08T21:02:36.422Z,15.55
2023-04-08T21:05:04.901Z,15.55
2023-04-08T21:07:32.894Z,15.54
2023-04-08T21:10:02.134Z,15.53
2023-04-08T21:12:30.071Z,15.52
2023-04-08T21:14:58.067Z,15.49
2023-04-08T21:17:26.119Z,15.46
2023-04-08T21:19:54.073Z,15.44
2023-04-08T21:22:22.139Z,15.40
2023-04-08T21:24:50.346Z,15.37
2023-04-08T21:27:19.679Z,15.38
2023-04-08T21:29:47.549Z,15.37
2023-04-08T21:32:16.373Z,15.33
2023-04-08T21:34:44.376Z,15.29
2023-04-08T21:37:12.516Z,15.28
2023-04-08T21:39:40.483Z,15.23
2023-04-08T21:42:08.384Z,15.22
2023-04-08T21:44:38.190Z,15.23
2023-04-08T21:47:06.177Z,15.23
2023-04-08T21:49:34.126Z,15.20
2023-04-08T21:52:03.224Z,15.19
2023-04-08T21:54:31.159Z,15.19
2023-04-08T21:56:59.177Z,15.12
2023-04-08T21:59:27.734Z,15.06
2023-04-08T22:01:57.233Z,15.06
2023-04-08T22:04:25.253Z,15.06
2023-04-08T22:06:53.210Z,15.05
2023-04-08T22:09:21.163Z,15.03
2023-04-08T22:11:49.078Z,15.04
2023-04-08T22:14:17.499Z,15.04
2023-04-08T22:16:45.848Z,15.02
2023-04-08T22:19:15.532Z,14.98
2023-04-08T22:21:43.587Z,15.00
2023-04-08T22:24:11.527Z,14.99
2023-04-08T22:26:39.557Z,14.97
2023-04-08T22:29:07.478Z,14.94
2023-04-08T22:31:35.753Z,14.95
2023-04-08T22:34:03.745Z,14.97
2023-04-08T22:36:33.224Z,14.94
2023-04-08T22:39:01.297Z,14.94
2023-04-08T22:41:29.235Z,14.93
2023-04-08T22:43:57.285Z,14.90
2023-04-08T22:46:25.484Z,14.88
2023-04-08T22:48:53.697Z,14.87
2023-04-08T22:51:22.443Z,14.87
2023-04-08T22:53:51.786Z,14.85
2023-04-08T22:56:19.742Z,14.83
2023-04-08T22:58:47.628Z,14.81
2023-04-08T23:01:17.206Z,14.78
2023-04-08T23:03:45.493Z,14.79
2023-04-08T23:06:13.502Z,14.77
2023-04-08T23:08:41.441Z,14.75
2023-04-08T23:11:10.890Z,14.74
2023-04-08T23:13:38.842Z,14.73
2023-04-08T23:16:07.256Z,14.73
2023-04-08T23:18:35.368Z,14.70
2023-04-08T23:21:03.918Z,14.71
2023-04-08T23:23:31.958Z,14.70
2023-04-08T23:26:00.041Z,14.71
2023-04-08T23:28:29.294Z,14.70
2023-04-08T23:30:57.279Z,14.72
2023-04-08T23:33:25.383Z,14.69
2023-04-08T23:35:53.363Z,14.69
2023-04-08T23:38:21.278Z,14.68
2023-04-08T23:40:49.545Z,14.64
2023-04-08T23:43:17.496Z,14.63
2023-04-08T23:45:46.800Z,14.61
2023-04-08T23:48:14.809Z,14.58
2023-04-08T23:50:42.741Z,14.59
2023-04-08T23:53:10.853Z,14.56
2023-04-08T23:55:38.788Z,14.52
2023-04-08T23:58:06.667Z,14.48
